Swatara, Minnesota
Current Conditions -  °F | °C
As of 3:35 PM on Saturday 22 Nov 2014 (Local Time) from KGPZ Reporting Station
Clear Clear  
Wind Chill: 36°   Ceiling: Unl
Heat Index: 41°   Visibility: 10mi
Dew Point: 28°   Wind: 8mph
Humidity: 61%   Direction: 150°SSE
Pressure: 29.57"   Gusts: NA
Location:  46.9°N, 93.67°W
Report Text: KGPZ 222135Z AUTO 15007KT 10SM CLR 05/M02 A2957 RMK AO1
Loading
Personal Weather Stations






























Interactive Weather Map New forecast layout! Learn more

10-Day Weather Forecast

Advertisements
Track Severe Weather on mobile